createdAt,value
2023-03-27T00:03:10.879Z,2.90
2023-03-27T00:07:12.600Z,2.80
2023-03-27T00:11:15.195Z,2.80
2023-03-27T00:15:19.760Z,2.70
2023-03-27T00:19:21.698Z,2.60
2023-03-27T00:23:23.271Z,2.60
2023-03-27T00:27:26.901Z,2.50
2023-03-27T00:31:28.580Z,2.40
2023-03-27T00:35:30.342Z,2.40
2023-03-27T00:39:31.957Z,2.30
2023-03-27T00:43:34.939Z,2.30
2023-03-27T00:47:38.627Z,2.20
2023-03-27T00:51:41.666Z,2.10
2023-03-27T00:55:45.092Z,2.10
2023-03-27T00:59:49.170Z,2.20
2023-03-27T01:03:55.142Z,2.20
2023-03-27T01:08:00.455Z,2.20
2023-03-27T01:12:04.461Z,2.30
2023-03-27T01:20:51.686Z,2.20
2023-03-27T01:25:13.036Z,2.20
2023-03-27T01:29:27.834Z,2.10
2023-03-27T01:34:00.844Z,2.10
2023-03-27T01:38:32.115Z,2.30
2023-03-27T01:43:05.532Z,2.20
2023-03-27T01:51:52.966Z,2.10
2023-03-27T01:56:03.627Z,2.10
2023-03-27T02:00:19.579Z,2.00
2023-03-27T02:04:28.807Z,2.00
2023-03-27T02:08:36.786Z,2.10
2023-03-27T02:12:43.478Z,2.10
2023-03-27T02:16:55.840Z,2.00
2023-03-27T02:20:58.620Z,2.00
2023-03-27T02:25:02.764Z,2.00
2023-03-27T02:29:19.648Z,2.00
2023-03-27T03:28:13.365Z,2.10
2023-03-27T03:32:15.508Z,2.10
2023-03-27T03:36:17.126Z,2.10
2023-03-27T03:40:19.445Z,2.10
2023-03-27T03:44:21.101Z,2.20
2023-03-27T03:48:22.822Z,2.10
2023-03-27T03:52:24.439Z,2.10
2023-03-27T03:56:27.775Z,2.00
2023-03-27T04:00:29.432Z,1.90
2023-03-27T04:04:32.135Z,1.90
2023-03-27T04:08:34.521Z,1.80
2023-03-27T04:12:36.127Z,1.80
2023-03-27T04:16:37.737Z,1.70
2023-03-27T04:20:39.321Z,1.80
2023-03-27T04:24:44.701Z,1.80
2023-03-27T04:28:47.082Z,1.70
2023-03-27T04:32:49.803Z,1.70
2023-03-27T04:36:52.149Z,1.70
2023-03-27T04:40:54.325Z,1.70
2023-03-27T04:44:56.633Z,1.60
2023-03-27T04:48:59.040Z,1.60
2023-03-27T04:53:02.011Z,1.60
2023-03-27T04:57:05.797Z,1.50
2023-03-27T05:01:09.547Z,1.50
2023-03-27T05:05:14.087Z,1.60
2023-03-27T05:09:23.324Z,1.50
2023-03-27T05:13:26.860Z,1.60
2023-03-27T05:17:28.868Z,1.60
2023-03-27T05:21:32.500Z,1.60
2023-03-27T05:25:37.792Z,1.70
2023-03-27T05:29:47.424Z,1.70
2023-03-27T05:33:54.593Z,1.80
2023-03-27T05:37:58.374Z,1.90
2023-03-27T05:42:00.018Z,2.10
2023-03-27T05:46:05.449Z,2.00
2023-03-27T05:50:07.503Z,2.10
2023-03-27T05:54:09.158Z,2.10
2023-03-27T05:58:17.749Z,2.10
2023-03-27T06:02:21.481Z,2.10
2023-03-27T06:06:23.333Z,2.10
2023-03-27T06:10:26.843Z,2.10
2023-03-27T06:14:28.433Z,2.20
2023-03-27T06:18:30.067Z,2.30
2023-03-27T06:22:31.793Z,2.30
2023-03-27T06:26:33.924Z,2.30
2023-03-27T06:30:38.284Z,2.50
2023-03-27T06:34:40.470Z,2.50
2023-03-27T06:38:44.210Z,2.40
2023-03-27T06:42:50.416Z,2.50
2023-03-27T06:46:56.965Z,2.60
2023-03-27T06:50:58.779Z,2.60
2023-03-27T06:55:00.666Z,2.60
2023-03-27T06:59:08.364Z,2.60
2023-03-27T07:03:11.010Z,2.60
2023-03-27T07:07:31.737Z,2.70
2023-03-27T07:11:35.419Z,2.70
2023-03-27T07:15:37.418Z,2.70
2023-03-27T07:19:39.067Z,2.80
2023-03-27T07:23:43.906Z,2.80
2023-03-27T07:27:48.019Z,2.90
2023-03-27T07:35:57.542Z,3.10
2023-03-27T07:39:59.336Z,3.00
2023-03-27T07:44:02.881Z,3.10
2023-03-27T07:48:15.981Z,3.20
2023-03-27T07:52:18.401Z,3.30
2023-03-27T07:56:20.880Z,3.60
2023-03-27T08:00:27.982Z,3.60
2023-03-27T08:04:30.147Z,3.70
2023-03-27T08:08:44.613Z,3.80
2023-03-27T08:12:46.690Z,3.70
2023-03-27T08:16:51.531Z,3.70
2023-03-27T08:21:00.244Z,3.70
2023-03-27T08:25:04.459Z,3.90
2023-03-27T08:29:09.325Z,3.70
2023-03-27T08:33:11.715Z,3.80
2023-03-27T08:37:16.980Z,4.00
2023-03-27T08:41:28.612Z,4.30
2023-03-27T08:45:36.728Z,4.30
2023-03-27T08:49:41.425Z,4.30
2023-03-27T08:53:49.222Z,4.50
2023-03-27T08:57:51.092Z,4.40
2023-03-27T09:02:13.936Z,4.40
2023-03-27T09:06:18.762Z,4.50
2023-03-27T09:10:24.393Z,4.40
2023-03-27T09:14:26.066Z,4.40
2023-03-27T09:18:33.226Z,4.50
2023-03-27T09:22:40.826Z,4.60
2023-03-27T09:26:42.984Z,4.60
2023-03-27T09:30:44.666Z,4.70
2023-03-27T09:34:48.008Z,4.80
2023-03-27T09:38:51.545Z,4.90
2023-03-27T09:42:53.362Z,4.90
2023-03-27T09:47:06.525Z,4.90
2023-03-27T09:51:28.198Z,5.10
2023-03-27T09:55:31.139Z,4.70
2023-03-27T09:59:37.873Z,4.70
2023-03-27T10:03:41.515Z,4.60
2023-03-27T10:07:46.535Z,5.00
2023-03-27T10:11:50.196Z,5.10
2023-03-27T10:15:58.017Z,4.70
2023-03-27T10:20:02.813Z,5.10
2023-03-27T10:24:06.680Z,5.80
2023-03-27T10:28:16.382Z,5.60
2023-03-27T10:32:17.964Z,5.70
2023-03-27T10:36:23.542Z,5.50
2023-03-27T10:40:26.258Z,5.90
2023-03-27T10:44:28.525Z,6.10
2023-03-27T10:48:39.253Z,6.00
2023-03-27T10:52:50.280Z,6.30
2023-03-27T10:57:05.000Z,6.50
2023-03-27T11:01:24.995Z,6.60
2023-03-27T11:05:34.878Z,6.40
2023-03-27T11:09:38.636Z,6.70
2023-03-27T11:13:42.035Z,6.30
2023-03-27T11:17:49.200Z,6.50
2023-03-27T11:21:55.967Z,5.80
2023-03-27T11:26:00.217Z,6.00
2023-03-27T11:30:08.212Z,6.40
2023-03-27T11:34:29.320Z,6.70
2023-03-27T11:38:33.889Z,6.40
2023-03-27T11:42:37.702Z,6.20
2023-03-27T11:46:54.270Z,6.00
2023-03-27T11:51:02.872Z,5.60
2023-03-27T11:55:24.102Z,5.40
2023-03-27T11:59:44.497Z,6.00
2023-03-27T12:04:05.174Z,6.30
2023-03-27T12:08:22.893Z,6.10
2023-03-27T12:12:42.985Z,6.60
2023-03-27T12:16:56.795Z,7.00
2023-03-27T12:21:19.011Z,7.20
2023-03-27T12:25:39.863Z,6.70
2023-03-27T12:30:00.012Z,6.50
2023-03-27T12:34:04.372Z,6.40
2023-03-27T12:38:09.080Z,6.00
2023-03-27T12:42:14.457Z,6.00
2023-03-27T12:46:30.113Z,5.10
2023-03-27T12:50:34.000Z,3.90
2023-03-27T12:54:38.952Z,3.30
2023-03-27T12:58:41.032Z,3.30
2023-03-27T13:02:42.826Z,4.00
2023-03-27T13:06:51.667Z,4.70
2023-03-27T13:10:53.264Z,5.30
2023-03-27T13:15:06.939Z,5.60
2023-03-27T13:19:27.322Z,5.80
2023-03-27T13:23:28.988Z,5.90
2023-03-27T13:27:45.915Z,6.30
2023-03-27T13:31:49.212Z,6.60
2023-03-27T13:36:11.746Z,6.50
2023-03-27T13:40:23.319Z,6.80
2023-03-27T13:44:30.909Z,6.90
2023-03-27T13:48:53.630Z,6.70
2023-03-27T13:52:55.161Z,6.20
2023-03-27T13:57:01.519Z,6.00
2023-03-27T14:01:22.599Z,6.20
2023-03-27T14:05:31.547Z,6.10
2023-03-27T14:09:42.428Z,5.90
2023-03-27T14:13:59.528Z,5.70
2023-03-27T14:18:07.587Z,5.50
2023-03-27T14:22:23.274Z,5.60
2023-03-27T14:26:25.516Z,6.10
2023-03-27T14:30:29.267Z,6.00
2023-03-27T14:34:47.337Z,6.20
2023-03-27T14:38:59.999Z,5.80
2023-03-27T14:43:02.526Z,6.10
2023-03-27T14:47:12.101Z,6.40
2023-03-27T14:51:19.469Z,6.00
2023-03-27T14:55:22.755Z,6.40
2023-03-27T14:59:26.630Z,6.60
2023-03-27T15:03:30.812Z,6.60
2023-03-27T15:07:34.017Z,6.60
2023-03-27T15:11:41.015Z,6.60
2023-03-27T15:15:44.205Z,6.20
2023-03-27T15:19:54.171Z,6.10
2023-03-27T15:24:02.165Z,6.40
2023-03-27T15:28:07.363Z,6.50
2023-03-27T15:32:11.771Z,6.30
2023-03-27T15:36:37.786Z,6.10
2023-03-27T15:40:42.854Z,6.50
2023-03-27T15:44:44.545Z,6.50
2023-03-27T15:48:50.734Z,6.60
2023-03-27T15:52:54.061Z,6.70
2023-03-27T15:57:09.980Z,6.40
2023-03-27T16:01:21.439Z,6.80
2023-03-27T16:05:23.044Z,6.60
2023-03-27T16:09:24.680Z,6.20
2023-03-27T16:13:34.464Z,6.20
2023-03-27T16:17:36.022Z,6.10
2023-03-27T16:21:37.801Z,6.00
2023-03-27T16:25:41.800Z,6.00
2023-03-27T16:29:48.661Z,6.00
2023-03-27T16:33:51.111Z,6.00
2023-03-27T16:37:53.377Z,5.50
2023-03-27T16:41:55.008Z,5.30
2023-03-27T16:45:57.532Z,5.20
2023-03-27T16:50:11.371Z,5.20
2023-03-27T16:54:13.492Z,5.30
2023-03-27T16:58:15.028Z,5.20
2023-03-27T17:02:16.650Z,5.20
2023-03-27T17:06:19.395Z,5.00
2023-03-27T17:10:21.393Z,4.90
2023-03-27T17:14:23.173Z,4.90
2023-03-27T17:18:25.264Z,4.70
2023-03-27T17:22:29.601Z,4.60
2023-03-27T17:26:32.887Z,4.80
2023-03-27T17:30:40.942Z,4.80
2023-03-27T17:34:42.797Z,4.70
2023-03-27T17:38:47.532Z,4.70
2023-03-27T17:42:49.337Z,4.40
2023-03-27T17:46:51.815Z,4.40
2023-03-27T17:51:07.450Z,4.30
2023-03-27T17:55:10.173Z,4.30
2023-03-27T17:59:11.797Z,4.10
2023-03-27T18:03:13.671Z,4.20
2023-03-27T18:07:15.382Z,4.00
2023-03-27T18:11:17.100Z,4.10
2023-03-27T18:15:50.881Z,4.00
2023-03-27T18:19:58.631Z,3.90
2023-03-27T18:24:00.421Z,3.80
2023-03-27T18:28:08.161Z,3.70
2023-03-27T18:32:10.332Z,3.80
2023-03-27T18:36:13.357Z,3.80
2023-03-27T18:40:43.463Z,3.90
2023-03-27T18:45:17.372Z,3.80
2023-03-27T18:49:24.866Z,3.70
2023-03-27T18:53:27.728Z,3.70
2023-03-27T18:57:29.480Z,3.70
2023-03-27T19:01:34.931Z,3.60
2023-03-27T19:05:36.690Z,3.60
2023-03-27T19:09:41.662Z,3.50
2023-03-27T19:13:43.590Z,3.50
2023-03-27T19:17:45.296Z,3.30
2023-03-27T19:21:47.439Z,3.30
2023-03-27T19:25:49.083Z,3.40
2023-03-27T19:29:50.786Z,3.30
2023-03-27T19:33:52.340Z,3.30
2023-03-27T19:37:54.980Z,3.30
2023-03-27T19:41:56.737Z,3.20
2023-03-27T19:46:15.796Z,3.10
2023-03-27T19:50:18.387Z,3.10
2023-03-27T19:54:20.101Z,3.20
2023-03-27T19:58:22.663Z,3.10
2023-03-27T20:02:24.673Z,3.10
2023-03-27T20:06:28.841Z,3.20
2023-03-27T20:10:30.604Z,3.20
2023-03-27T20:14:32.301Z,3.10
2023-03-27T20:18:34.268Z,3.00
2023-03-27T20:22:50.262Z,2.90
2023-03-27T20:26:58.359Z,2.80
2023-03-27T20:31:04.721Z,2.70
2023-03-27T20:35:16.577Z,2.60
2023-03-27T20:39:27.245Z,2.60
2023-03-27T20:43:31.146Z,2.70
2023-03-27T20:47:39.457Z,2.60
2023-03-27T20:51:42.833Z,2.50
2023-03-27T20:59:48.848Z,2.50
2023-03-27T21:03:54.133Z,2.40
2023-03-27T21:07:56.815Z,2.30
2023-03-27T21:11:58.901Z,2.30
2023-03-27T21:16:02.631Z,2.20
2023-03-27T21:20:06.451Z,2.30
2023-03-27T21:24:17.008Z,2.20
2023-03-27T21:28:18.989Z,2.20
2023-03-27T21:32:21.020Z,2.10
2023-03-27T21:36:22.814Z,2.20
2023-03-27T21:40:24.595Z,2.30
2023-03-27T21:44:26.195Z,2.20
2023-03-27T21:48:28.166Z,2.20
2023-03-27T21:52:29.845Z,2.10
2023-03-27T21:56:31.542Z,2.10
2023-03-27T22:00:33.352Z,2.10
2023-03-27T22:04:34.983Z,2.10
2023-03-27T22:08:37.330Z,2.10
2023-03-27T22:12:39.250Z,2.10
2023-03-27T22:16:40.892Z,2.10
2023-03-27T22:20:42.471Z,2.10
2023-03-27T22:24:44.093Z,2.00
2023-03-27T22:28:45.967Z,2.00
2023-03-27T22:32:47.620Z,2.00
2023-03-27T22:36:49.249Z,2.00
2023-03-27T22:40:50.994Z,1.90
2023-03-27T22:44:52.578Z,1.90
2023-03-27T22:48:57.852Z,1.90
2023-03-27T22:52:59.451Z,1.90
2023-03-27T22:57:01.681Z,1.80
2023-03-27T23:01:03.983Z,1.70
2023-03-27T23:05:06.104Z,1.80
2023-03-27T23:09:08.500Z,1.80
2023-03-27T23:13:10.344Z,1.70
2023-03-27T23:17:11.944Z,1.70
2023-03-27T23:21:14.155Z,1.70
2023-03-27T23:25:15.817Z,1.60
2023-03-27T23:29:17.349Z,1.40
2023-03-27T23:33:19.026Z,1.40
2023-03-27T23:37:20.873Z,1.30
2023-03-27T23:41:22.569Z,1.30
2023-03-27T23:45:24.099Z,1.30
2023-03-27T23:49:25.924Z,1.20
2023-03-27T23:53:28.175Z,1.30
2023-03-27T23:57:29.769Z,1.20
